sensor_id;sensor_type;location;lat;lon;timestamp;pressure;altitude;pressure_sealevel;temperature;humidity
10948;BME280;5526;42.070;24.752;2024-03-23T00:53:01;99129.78;;;7.35;74.18
10948;BME280;5526;42.070;24.752;2024-03-23T00:55:28;99132.06;;;7.31;75.48
10948;BME280;5526;42.070;24.752;2024-03-23T00:57:55;99122.63;;;7.30;75.25
10948;BME280;5526;42.070;24.752;2024-03-23T01:00:22;99120.56;;;7.32;75.41
10948;BME280;5526;42.070;24.752;2024-03-23T01:02:47;99119.78;;;7.32;75.63
10948;BME280;5526;42.070;24.752;2024-03-23T01:05:15;99120.22;;;7.29;75.51
10948;BME280;5526;42.070;24.752;2024-03-23T01:07:41;99119.88;;;7.25;76.35
10948;BME280;5526;42.070;24.752;2024-03-23T01:10:09;99119.88;;;7.25;76.84
10948;BME280;5526;42.070;24.752;2024-03-23T01:12:35;99114.88;;;7.24;76.64
10948;BME280;5526;42.070;24.752;2024-03-23T01:15:03;99112.97;;;7.19;77.12
10948;BME280;5526;42.070;24.752;2024-03-23T01:17:29;99118.97;;;7.20;78.04
10948;BME280;5526;42.070;24.752;2024-03-23T01:19:56;99112.84;;;7.14;77.99
10948;BME280;5526;42.070;24.752;2024-03-23T01:22:22;99121.16;;;7.11;78.68
10948;BME280;5526;42.070;24.752;2024-03-23T01:24:49;99120.13;;;7.12;78.50
10948;BME280;5526;42.070;24.752;2024-03-23T01:27:16;99077.00;;;6.92;77.97
10948;BME280;5526;42.070;24.752;2024-03-23T01:29:43;99116.94;;;7.10;78.27
10948;BME280;5526;42.070;24.752;2024-03-23T01:32:10;99121.72;;;7.13;77.88
10948;BME280;5526;42.070;24.752;2024-03-23T01:34:37;99126.03;;;7.08;78.07
10948;BME280;5526;42.070;24.752;2024-03-23T01:37:03;99111.03;;;7.03;78.35
10948;BME280;5526;42.070;24.752;2024-03-23T01:39:30;99114.53;;;6.97;78.95
10948;BME280;5526;42.070;24.752;2024-03-23T01:41:56;99114.97;;;6.94;78.98
10948;BME280;5526;42.070;24.752;2024-03-23T01:44:24;99112.38;;;6.94;79.33
10948;BME280;5526;42.070;24.752;2024-03-23T01:46:50;99115.13;;;6.99;79.41
10948;BME280;5526;42.070;24.752;2024-03-23T01:49:18;99117.16;;;6.97;79.01
10948;BME280;5526;42.070;24.752;2024-03-23T01:51:44;99117.16;;;6.97;78.89
10948;BME280;5526;42.070;24.752;2024-03-23T01:54:11;99116.59;;;6.95;79.11
10948;BME280;5526;42.070;24.752;2024-03-23T01:56:38;99112.16;;;6.96;78.86
10948;BME280;5526;42.070;24.752;2024-03-23T01:59:05;99117.38;;;6.96;78.59
10948;BME280;5526;42.070;24.752;2024-03-23T02:01:35;99121.25;;;6.93;78.57
10948;BME280;5526;42.070;24.752;2024-03-23T02:04:02;99125.34;;;6.89;78.75
10948;BME280;5526;42.070;24.752;2024-03-23T02:06:28;99122.16;;;6.87;78.26
10948;BME280;5526;42.070;24.752;2024-03-23T02:08:55;99119.41;;;6.82;79.07
10948;BME280;5526;42.070;24.752;2024-03-23T02:11:22;99123.06;;;6.81;78.42
10948;BME280;5526;42.070;24.752;2024-03-23T02:13:49;99117.81;;;6.70;78.92
10948;BME280;5526;42.070;24.752;2024-03-23T02:16:15;99128.41;;;6.75;78.86
10948;BME280;5526;42.070;24.752;2024-03-23T02:18:43;99120.78;;;6.73;79.12
10948;BME280;5526;42.070;24.752;2024-03-23T02:21:09;99115.00;;;6.71;79.61
10948;BME280;5526;42.070;24.752;2024-03-23T02:23:38;99117.94;;;6.63;80.04
10948;BME280;5526;42.070;24.752;2024-03-23T02:26:04;99115.06;;;6.53;80.50
10948;BME280;5526;42.070;24.752;2024-03-23T02:28:31;99112.78;;;6.57;80.38
10948;BME280;5526;42.070;24.752;2024-03-23T02:30:57;99113.00;;;6.55;80.79
10948;BME280;5526;42.070;24.752;2024-03-23T02:33:24;99105.97;;;6.56;80.54
10948;BME280;5526;42.070;24.752;2024-03-23T02:35:50;99110.97;;;6.57;80.72
10948;BME280;5526;42.070;24.752;2024-03-23T02:38:17;99105.41;;;6.54;80.18
10948;BME280;5526;42.070;24.752;2024-03-23T02:40:44;99109.38;;;6.56;80.45
10948;BME280;5526;42.070;24.752;2024-03-23T02:43:11;99106.63;;;6.51;80.44
10948;BME280;5526;42.070;24.752;2024-03-23T02:45:37;99110.06;;;6.52;80.00
10948;BME280;5526;42.070;24.752;2024-03-23T02:48:05;99109.25;;;6.51;79.65
10948;BME280;5526;42.070;24.752;2024-03-23T02:50:31;99116.63;;;6.54;79.40
10948;BME280;5526;42.070;24.752;2024-03-23T02:52:57;99108.69;;;6.49;79.77
10948;BME280;5526;42.070;24.752;2024-03-23T02:55:23;99108.69;;;6.49;79.76
10948;BME280;5526;42.070;24.752;2024-03-23T02:57:52;99104.13;;;6.45;80.77
10948;BME280;5526;42.070;24.752;2024-03-23T03:00:18;99106.50;;;6.35;80.75
10948;BME280;5526;42.070;24.752;2024-03-23T03:02:45;99104.88;;;6.34;81.04
10948;BME280;5526;42.070;24.752;2024-03-23T03:05:11;99109.88;;;6.35;80.73
10948;BME280;5526;42.070;24.752;2024-03-23T03:07:39;99108.53;;;6.33;81.17
10948;BME280;5526;42.070;24.752;2024-03-23T03:10:06;99102.63;;;6.37;81.30
10948;BME280;5526;42.070;24.752;2024-03-23T03:12:36;99103.66;;;6.36;81.43
10948;BME280;5526;42.070;24.752;2024-03-23T03:15:05;99097.63;;;6.36;81.30
10948;BME280;5526;42.070;24.752;2024-03-23T03:17:32;99112.16;;;6.32;81.73
10948;BME280;5526;42.070;24.752;2024-03-23T03:19:58;99102.50;;;6.32;81.49
10948;BME280;5526;42.070;24.752;2024-03-23T03:22:25;99102.25;;;6.34;81.10
10948;BME280;5526;42.070;24.752;2024-03-23T03:24:51;99099.22;;;6.37;80.97
10948;BME280;5526;42.070;24.752;2024-03-23T03:27:18;99102.84;;;6.36;81.09
10948;BME280;5526;42.070;24.752;2024-03-23T03:29:44;99105.69;;;6.34;81.11
10948;BME280;5526;42.070;24.752;2024-03-23T03:32:12;99097.28;;;6.32;80.88
10948;BME280;5526;42.070;24.752;2024-03-23T03:34:38;99102.25;;;6.34;81.23
10948;BME280;5526;42.070;24.752;2024-03-23T03:37:05;99111.56;;;6.30;81.15
10948;BME280;5526;42.070;24.752;2024-03-23T03:39:31;99098.50;;;6.30;80.87
10948;BME280;5526;42.070;24.752;2024-03-23T03:41:58;99105.44;;;6.24;81.55
10948;BME280;5526;42.070;24.752;2024-03-23T03:44:24;99104.75;;;6.17;80.61
10948;BME280;5526;42.070;24.752;2024-03-23T03:46:51;99112.06;;;6.09;81.14
10948;BME280;5526;42.070;24.752;2024-03-23T03:49:18;99119.59;;;6.17;80.40
10948;BME280;5526;42.070;24.752;2024-03-23T03:51:45;99119.81;;;6.15;80.58
10948;BME280;5526;42.070;24.752;2024-03-23T03:54:11;99120.50;;;6.11;80.87
10948;BME280;5526;42.070;24.752;2024-03-23T03:56:38;99088.69;;;5.84;81.36
10948;BME280;5526;42.070;24.752;2024-03-23T03:59:04;99120.94;;;6.08;81.58
10948;BME280;5526;42.070;24.752;2024-03-23T04:01:31;99125.72;;;6.11;81.31
10948;BME280;5526;42.070;24.752;2024-03-23T04:03:57;99130.59;;;6.07;81.50
10948;BME280;5526;42.070;24.752;2024-03-23T04:06:25;99132.25;;;6.02;81.39
10948;BME280;5526;42.070;24.752;2024-03-23T04:08:51;99137.94;;;5.99;81.54
10948;BME280;5526;42.070;24.752;2024-03-23T04:11:18;99133.94;;;5.96;81.45
10948;BME280;5526;42.070;24.752;2024-03-23T04:13:44;99131.53;;;5.95;81.55
10948;BME280;5526;42.070;24.752;2024-03-23T04:16:11;99136.41;;;5.91;81.56
10948;BME280;5526;42.070;24.752;2024-03-23T04:18:37;99137.53;;;5.84;80.78
10948;BME280;5526;42.070;24.752;2024-03-23T04:21:04;99130.19;;;5.74;80.73
10948;BME280;5526;42.070;24.752;2024-03-23T04:23:31;99139.25;;;5.72;81.56
10948;BME280;5526;42.070;24.752;2024-03-23T04:26:03;99142.22;;;5.75;81.63
10948;BME280;5526;42.070;24.752;2024-03-23T04:28:29;99134.16;;;5.77;82.07
10948;BME280;5526;42.070;24.752;2024-03-23T04:30:56;99136.16;;;5.81;82.40
10948;BME280;5526;42.070;24.752;2024-03-23T04:33:22;99140.19;;;5.77;81.76
10948;BME280;5526;42.070;24.752;2024-03-23T04:35:49;99139.16;;;5.78;81.42
10948;BME280;5526;42.070;24.752;2024-03-23T04:38:15;99145.38;;;5.84;81.74
10948;BME280;5526;42.070;24.752;2024-03-23T04:40:44;99140.41;;;5.76;81.96
10948;BME280;5526;42.070;24.752;2024-03-23T04:43:11;99141.91;;;5.65;82.40
10948;BME280;5526;42.070;24.752;2024-03-23T04:45:39;99142.94;;;5.64;82.81
10948;BME280;5526;42.070;24.752;2024-03-23T04:48:07;99144.09;;;5.68;83.04
10948;BME280;5526;42.070;24.752;2024-03-23T04:50:34;99150.25;;;5.74;82.57
10948;BME280;5526;42.070;24.752;2024-03-23T04:53:01;99140.91;;;5.66;83.49
10948;BME280;5526;42.070;24.752;2024-03-23T04:55:28;99142.84;;;5.71;82.93
10948;BME280;5526;42.070;24.752;2024-03-23T04:57:56;99148.44;;;5.92;83.28
10948;BME280;5526;42.070;24.752;2024-03-23T05:00:22;99140.81;;;6.09;83.08
10948;BME280;5526;42.070;24.752;2024-03-23T05:02:51;99142.81;;;6.25;82.95
10948;BME280;5526;42.070;24.752;2024-03-23T05:05:18;99140.25;;;6.36;82.63
10948;BME280;5526;42.070;24.752;2024-03-23T05:07:45;99141.41;;;6.52;82.20
10948;BME280;5526;42.070;24.752;2024-03-23T05:10:11;99146.94;;;6.73;82.24
10948;BME280;5526;42.070;24.752;2024-03-23T05:12:39;99140.13;;;6.84;81.20
10948;BME280;5526;42.070;24.752;2024-03-23T05:15:07;99145.13;;;6.85;80.58
10948;BME280;5526;42.070;24.752;2024-03-23T05:17:34;99144.09;;;6.86;80.38
10948;BME280;5526;42.070;24.752;2024-03-23T05:20:00;99140.94;;;7.07;80.33
10948;BME280;5526;42.070;24.752;2024-03-23T05:22:28;99140.38;;;7.17;79.63
10948;BME280;5526;42.070;24.752;2024-03-23T05:24:53;99135.00;;;7.35;80.23
10948;BME280;5526;42.070;24.752;2024-03-23T05:27:21;99130.91;;;7.39;78.68
10948;BME280;5526;42.070;24.752;2024-03-23T05:29:46;99128.75;;;7.47;78.51
10948;BME280;5526;42.070;24.752;2024-03-23T05:32:15;99128.03;;;7.63;77.46
10948;BME280;5526;42.070;24.752;2024-03-23T05:34:41;99131.34;;;7.59;78.20
10948;BME280;5526;42.070;24.752;2024-03-23T05:37:08;99130.28;;;7.71;78.28
10948;BME280;5526;42.070;24.752;2024-03-23T05:39:34;99131.91;;;7.61;77.99
10948;BME280;5526;42.070;24.752;2024-03-23T05:42:01;99130.38;;;7.88;77.94
10948;BME280;5526;42.070;24.752;2024-03-23T05:44:27;99138.38;;;7.81;76.34
10948;BME280;5526;42.070;24.752;2024-03-23T05:46:54;99138.41;;;7.58;76.12
10948;BME280;5526;42.070;24.752;2024-03-23T05:49:22;99136.13;;;7.62;76.95
10948;BME280;5526;42.070;24.752;2024-03-23T05:51:50;99126.78;;;7.66;76.71
10948;BME280;5526;42.070;24.752;2024-03-23T05:54:16;99138.50;;;7.75;76.11
10948;BME280;5526;42.070;24.752;2024-03-23T05:56:43;99140.53;;;7.73;77.04
10948;BME280;5526;42.070;24.752;2024-03-23T05:59:09;99136.13;;;8.01;75.99
10948;BME280;5526;42.070;24.752;2024-03-23T06:01:36;99132.31;;;8.20;75.98
10948;BME280;5526;42.070;24.752;2024-03-23T06:04:04;99135.38;;;7.89;76.72
10948;BME280;5526;42.070;24.752;2024-03-23T06:06:33;99139.22;;;7.98;76.13
10948;BME280;5526;42.070;24.752;2024-03-23T06:08:59;99141.16;;;7.91;75.89
10948;BME280;5526;42.070;24.752;2024-03-23T06:11:26;99140.66;;;8.06;76.61
10948;BME280;5526;42.070;24.752;2024-03-23T06:13:52;99141.53;;;8.51;76.82
10948;BME280;5526;42.070;24.752;2024-03-23T06:16:19;99136.63;;;8.26;77.95
10948;BME280;5526;42.070;24.752;2024-03-23T06:18:49;99140.59;;;8.29;76.39
10948;BME280;5526;42.070;24.752;2024-03-23T06:21:16;99135.34;;;8.73;74.56
10948;BME280;5526;42.070;24.752;2024-03-23T06:23:43;99123.75;;;8.69;73.23
10948;BME280;5526;42.070;24.752;2024-03-23T06:26:16;99138.69;;;8.52;73.55
10948;BME280;5526;42.070;24.752;2024-03-23T06:28:42;99132.09;;;8.66;72.79
10948;BME280;5526;42.070;24.752;2024-03-23T06:31:09;99136.00;;;8.80;72.96
10948;BME280;5526;42.070;24.752;2024-03-23T06:33:36;99137.44;;;9.05;72.33
10948;BME280;5526;42.070;24.752;2024-03-23T06:36:04;99132.56;;;9.30;71.17
10948;BME280;5526;42.070;24.752;2024-03-23T06:38:30;99135.19;;;9.30;70.64
10948;BME280;5526;42.070;24.752;2024-03-23T06:40:58;99130.06;;;9.40;69.67
10948;BME280;5526;42.070;24.752;2024-03-23T06:43:24;99137.88;;;9.73;67.71
10948;BME280;5526;42.070;24.752;2024-03-23T06:45:55;99141.44;;;10.31;65.65
10948;BME280;5526;42.070;24.752;2024-03-23T06:48:21;99141.78;;;10.66;64.48
10948;BME280;5526;42.070;24.752;2024-03-23T06:50:48;99134.91;;;10.97;61.97
10948;BME280;5526;42.070;24.752;2024-03-23T06:53:14;99130.59;;;11.17;60.97
10948;BME280;5526;42.070;24.752;2024-03-23T06:55:42;99137.66;;;11.12;61.10
10948;BME280;5526;42.070;24.752;2024-03-23T06:58:17;99131.19;;;10.93;62.20
10948;BME280;5526;42.070;24.752;2024-03-23T07:00:44;99130.69;;;11.32;61.03
10948;BME280;5526;42.070;24.752;2024-03-23T07:03:10;99134.72;;;11.45;59.62
10948;BME280;5526;42.070;24.752;2024-03-23T07:05:37;99131.31;;;11.49;59.49
10948;BME280;5526;42.070;24.752;2024-03-23T07:08:03;99126.41;;;11.68;58.77
10948;BME280;5526;42.070;24.752;2024-03-23T07:10:30;99126.97;;;11.70;57.79
10948;BME280;5526;42.070;24.752;2024-03-23T07:12:56;99126.97;;;11.70;58.31
10948;BME280;5526;42.070;24.752;2024-03-23T07:15:25;99127.31;;;11.93;57.10
10948;BME280;5526;42.070;24.752;2024-03-23T07:17:51;99124.91;;;11.87;56.95
10948;BME280;5526;42.070;24.752;2024-03-23T07:20:18;99119.97;;;12.00;56.08
10948;BME280;5526;42.070;24.752;2024-03-23T07:22:45;99101.84;;;12.49;55.40
10948;BME280;5526;42.070;24.752;2024-03-23T07:25:13;99116.13;;;12.43;53.67
10948;BME280;5526;42.070;24.752;2024-03-23T07:27:39;99112.38;;;12.24;54.53
10948;BME280;5526;42.070;24.752;2024-03-23T07:30:07;99114.53;;;12.57;53.99
10948;BME280;5526;42.070;24.752;2024-03-23T07:32:35;99107.69;;;12.86;52.08
10948;BME280;5526;42.070;24.752;2024-03-23T07:35:03;99110.59;;;12.89;51.03
10948;BME280;5526;42.070;24.752;2024-03-23T07:37:29;99108.22;;;13.08;51.34
10948;BME280;5526;42.070;24.752;2024-03-23T07:39:56;99107.19;;;13.09;50.14
10948;BME280;5526;42.070;24.752;2024-03-23T07:42:23;99100.81;;;13.00;50.00
10948;BME280;5526;42.070;24.752;2024-03-23T07:44:52;99098.44;;;13.09;50.07
10948;BME280;5526;42.070;24.752;2024-03-23T07:47:19;99098.19;;;13.10;49.69
10948;BME280;5526;42.070;24.752;2024-03-23T07:49:48;99097.09;;;12.81;48.50
10948;BME280;5526;42.070;24.752;2024-03-23T07:52:14;99095.22;;;13.32;48.20
10948;BME280;5526;42.070;24.752;2024-03-23T07:54:41;99091.78;;;13.36;47.13
10948;BME280;5526;42.070;24.752;2024-03-23T07:57:07;99100.78;;;13.30;47.14
10948;BME280;5526;42.070;24.752;2024-03-23T07:59:34;99095.78;;;13.14;46.38
10948;BME280;5526;42.070;24.752;2024-03-23T08:02:00;99090.25;;;13.10;47.02
10948;BME280;5526;42.070;24.752;2024-03-23T08:04:27;99080.31;;;13.61;46.22
10948;BME280;5526;42.070;24.752;2024-03-23T08:06:55;99087.97;;;13.72;45.97
10948;BME280;5526;42.070;24.752;2024-03-23T08:09:22;99086.69;;;13.50;46.10
10948;BME280;5526;42.070;24.752;2024-03-23T08:11:48;99080.75;;;13.88;45.83
10948;BME280;5526;42.070;24.752;2024-03-23T08:14:15;99082.13;;;14.29;45.05
10948;BME280;5526;42.070;24.752;2024-03-23T08:16:41;99076.13;;;14.08;44.64
10948;BME280;5526;42.070;24.752;2024-03-23T08:19:14;99078.50;;;14.10;44.97
10948;BME280;5526;42.070;24.752;2024-03-23T08:21:40;99076.53;;;14.35;44.15
10948;BME280;5526;42.070;24.752;2024-03-23T08:24:08;99065.72;;;14.60;43.11
10948;BME280;5526;42.070;24.752;2024-03-23T08:26:34;99068.94;;;15.14;42.47
10948;BME280;5526;42.070;24.752;2024-03-23T08:29:03;99060.72;;;14.20;43.58
10948;BME280;5526;42.070;24.752;2024-03-23T08:31:29;99066.00;;;14.64;42.76
10948;BME280;5526;42.070;24.752;2024-03-23T08:33:57;99061.75;;;14.91;42.22
10948;BME280;5526;42.070;24.752;2024-03-23T08:36:23;99047.72;;;15.43;42.30
10948;BME280;5526;42.070;24.752;2024-03-23T08:38:50;99049.13;;;15.77;42.00
10948;BME280;5526;42.070;24.752;2024-03-23T08:41:20;99049.78;;;15.88;41.47
10948;BME280;5526;42.070;24.752;2024-03-23T08:43:47;99045.00;;;15.90;41.02
10948;BME280;5526;42.070;24.752;2024-03-23T08:46:15;99032.50;;;15.90;40.83
10948;BME280;5526;42.070;24.752;2024-03-23T08:48:44;99022.53;;;16.19;39.76
10948;BME280;5526;42.070;24.752;2024-03-23T08:51:12;99028.38;;;16.35;39.61
10948;BME280;5526;42.070;24.752;2024-03-23T08:53:39;99027.63;;;16.34;39.08
10948;BME280;5526;42.070;24.752;2024-03-23T08:56:07;99025.72;;;16.35;39.14
10948;BME280;5526;42.070;24.752;2024-03-23T08:58:36;99026.91;;;16.47;38.92
10948;BME280;5526;42.070;24.752;2024-03-23T09:01:04;99021.38;;;16.44;38.60
10948;BME280;5526;42.070;24.752;2024-03-23T09:03:31;99028.94;;;16.18;39.17
10948;BME280;5526;42.070;24.752;2024-03-23T09:05:57;99016.19;;;16.34;38.48
10948;BME280;5526;42.070;24.752;2024-03-23T09:08:25;99014.72;;;16.09;38.78
10948;BME280;5526;42.070;24.752;2024-03-23T09:10:52;99006.69;;;15.77;39.72
10948;BME280;5526;42.070;24.752;2024-03-23T09:13:19;99002.03;;;16.06;39.17
10948;BME280;5526;42.070;24.752;2024-03-23T09:15:48;99008.03;;;16.30;39.69
10948;BME280;5526;42.070;24.752;2024-03-23T09:18:15;99002.16;;;16.65;38.90
10948;BME280;5526;42.070;24.752;2024-03-23T09:20:41;98989.22;;;16.59;38.54
10948;BME280;5526;42.070;24.752;2024-03-23T09:23:09;98996.75;;;16.70;38.67
10948;BME280;5526;42.070;24.752;2024-03-23T09:25:38;98988.22;;;16.55;38.93
10948;BME280;5526;42.070;24.752;2024-03-23T09:28:06;98993.63;;;17.09;38.45
10948;BME280;5526;42.070;24.752;2024-03-23T09:30:34;98979.84;;;17.07;38.34
10948;BME280;5526;42.070;24.752;2024-03-23T09:33:03;98989.69;;;16.93;38.93
10948;BME280;5526;42.070;24.752;2024-03-23T09:35:29;98985.19;;;17.21;38.38
10948;BME280;5526;42.070;24.752;2024-03-23T09:37:56;98974.53;;;17.34;38.13
10948;BME280;5526;42.070;24.752;2024-03-23T09:40:22;98974.31;;;17.31;38.16
10948;BME280;5526;42.070;24.752;2024-03-23T09:42:50;98974.31;;;17.31;38.44
10948;BME280;5526;42.070;24.752;2024-03-23T09:45:19;98974.31;;;16.90;38.84
10948;BME280;5526;42.070;24.752;2024-03-23T09:47:47;98964.06;;;17.24;38.57
10948;BME280;5526;42.070;24.752;2024-03-23T09:50:15;98968.81;;;17.14;38.41
10948;BME280;5526;42.070;24.752;2024-03-23T09:52:43;98968.59;;;17.37;38.16
10948;BME280;5526;42.070;24.752;2024-03-23T09:55:09;98954.53;;;17.72;38.08
10948;BME280;5526;42.070;24.752;2024-03-23T09:57:36;98952.31;;;17.66;37.46
10948;BME280;5526;42.070;24.752;2024-03-23T10:00:02;98950.47;;;17.53;37.59
10948;BME280;5526;42.070;24.752;2024-03-23T10:02:30;98939.53;;;17.54;37.95
10948;BME280;5526;42.070;24.752;2024-03-23T10:04:56;98939.19;;;17.69;37.53
10948;BME280;5526;42.070;24.752;2024-03-23T10:07:25;98935.16;;;17.72;37.72
10948;BME280;5526;42.070;24.752;2024-03-23T10:09:54;98934.69;;;17.92;37.38
10948;BME280;5526;42.070;24.752;2024-03-23T10:12:22;98921.06;;;17.93;36.71
10948;BME280;5526;42.070;24.752;2024-03-23T10:14:49;98923.69;;;18.15;37.45
10948;BME280;5526;42.070;24.752;2024-03-23T10:17:17;98929.22;;;18.41;36.42
10948;BME280;5526;42.070;24.752;2024-03-23T10:19:44;98913.63;;;18.04;36.58
10948;BME280;5526;42.070;24.752;2024-03-23T10:22:13;98912.97;;;18.29;36.92
10948;BME280;5526;42.070;24.752;2024-03-23T10:24:41;98902.47;;;18.46;36.68
10948;BME280;5526;42.070;24.752;2024-03-23T10:27:08;98912.84;;;18.56;36.35
10948;BME280;5526;42.070;24.752;2024-03-23T10:29:35;98896.84;;;19.03;35.25
10948;BME280;5526;42.070;24.752;2024-03-23T10:32:09;98886.00;;;18.91;34.65
10948;BME280;5526;42.070;24.752;2024-03-23T10:34:36;98888.94;;;18.73;35.78
10948;BME280;5526;42.070;24.752;2024-03-23T10:37:03;98858.97;;;18.76;35.68
10948;BME280;5526;42.070;24.752;2024-03-23T10:39:32;98880.22;;;19.15;35.40
10948;BME280;5526;42.070;24.752;2024-03-23T10:42:02;98872.38;;;18.93;34.33
10948;BME280;5526;42.070;24.752;2024-03-23T10:44:29;98870.72;;;18.75;34.74
10948;BME280;5526;42.070;24.752;2024-03-23T10:46:57;98868.78;;;19.06;34.78
10948;BME280;5526;42.070;24.752;2024-03-23T10:49:26;98862.34;;;19.15;34.55
10948;BME280;5526;42.070;24.752;2024-03-23T10:51:58;98859.88;;;18.63;34.91
10948;BME280;5526;42.070;24.752;2024-03-23T10:54:25;98849.63;;;19.12;33.82
10948;BME280;5526;42.070;24.752;2024-03-23T10:56:57;98852.38;;;19.55;33.51
10948;BME280;5526;42.070;24.752;2024-03-23T10:59:27;98847.00;;;19.72;33.67
10948;BME280;5526;42.070;24.752;2024-03-23T11:01:56;98839.16;;;19.67;32.88
10948;BME280;5526;42.070;24.752;2024-03-23T11:04:32;98832.69;;;19.85;33.12
10948;BME280;5526;42.070;24.752;2024-03-23T11:07:00;98828.84;;;20.20;32.70
10948;BME280;5526;42.070;24.752;2024-03-23T11:09:40;98820.00;;;20.28;32.50
10948;BME280;5526;42.070;24.752;2024-03-23T11:12:25;98817.00;;;20.38;30.91
10948;BME280;5526;42.070;24.752;2024-03-23T11:14:55;98813.31;;;20.51;31.56
10948;BME280;5526;42.070;24.752;2024-03-23T11:17:24;98806.00;;;20.39;32.11
10948;BME280;5526;42.070;24.752;2024-03-23T11:19:55;98803.81;;;20.62;31.93
10948;BME280;5526;42.070;24.752;2024-03-23T11:22:41;98793.84;;;20.50;31.61
10948;BME280;5526;42.070;24.752;2024-03-23T11:25:16;98788.63;;;20.16;31.88
10948;BME280;5526;42.070;24.752;2024-03-23T11:27:43;98791.69;;;19.81;32.53
10948;BME280;5526;42.070;24.752;2024-03-23T11:30:16;98781.09;;;20.01;31.44
10948;BME280;5526;42.070;24.752;2024-03-23T11:32:43;98784.22;;;20.49;31.71
10948;BME280;5526;42.070;24.752;2024-03-23T11:35:10;98774.53;;;20.45;31.08
10948;BME280;5526;42.070;24.752;2024-03-23T11:37:37;98772.47;;;20.71;31.31
10948;BME280;5526;42.070;24.752;2024-03-23T11:40:17;98765.16;;;20.59;31.06
10948;BME280;5526;42.070;24.752;2024-03-23T11:42:44;98762.16;;;20.61;31.83
10948;BME280;5526;42.070;24.752;2024-03-23T11:45:12;98763.00;;;20.73;32.25
10948;BME280;5526;42.070;24.752;2024-03-23T11:47:39;98749.66;;;20.94;31.57
10948;BME280;5526;42.070;24.752;2024-03-23T11:50:07;98749.34;;;20.96;31.17
10948;BME280;5526;42.070;24.752;2024-03-23T11:52:33;98742.13;;;20.88;31.12
10948;BME280;5526;42.070;24.752;2024-03-23T11:55:04;98728.28;;;20.85;30.61
10948;BME280;5526;42.070;24.752;2024-03-23T11:57:30;98736.69;;;21.05;31.01
10948;BME280;5526;42.070;24.752;2024-03-23T11:59:58;98723.09;;;20.68;30.84
10948;BME280;5526;42.070;24.752;2024-03-23T12:02:24;98719.50;;;20.64;30.94
10948;BME280;5526;42.070;24.752;2024-03-23T12:04:52;98711.22;;;20.78;31.30
10948;BME280;5526;42.070;24.752;2024-03-23T12:07:19;98701.88;;;21.05;31.24
10948;BME280;5526;42.070;24.752;2024-03-23T12:09:49;98702.00;;;20.67;30.88
10948;BME280;5526;42.070;24.752;2024-03-23T12:12:28;98702.47;;;20.69;30.77
10948;BME280;5526;42.070;24.752;2024-03-23T12:15:02;98696.59;;;20.75;30.31
10948;BME280;5526;42.070;24.752;2024-03-23T12:17:28;98697.53;;;21.00;30.24
10948;BME280;5526;42.070;24.752;2024-03-23T12:19:57;98675.38;;;20.91;29.80
10948;BME280;5526;42.070;24.752;2024-03-23T12:22:23;98689.88;;;20.49;30.55
10948;BME280;5526;42.070;24.752;2024-03-23T12:24:51;98686.09;;;20.50;30.06
10948;BME280;5526;42.070;24.752;2024-03-23T12:27:17;98690.06;;;20.64;30.37
10948;BME280;5526;42.070;24.752;2024-03-23T12:29:44;98686.91;;;20.92;30.21
10948;BME280;5526;42.070;24.752;2024-03-23T12:32:13;98679.72;;;21.04;29.46
10948;BME280;5526;42.070;24.752;2024-03-23T12:34:40;98669.78;;;20.84;29.68
10948;BME280;5526;42.070;24.752;2024-03-23T12:37:08;98666.22;;;21.13;29.13
10948;BME280;5526;42.070;24.752;2024-03-23T12:39:35;98665.84;;;21.23;28.23
10948;BME280;5526;42.070;24.752;2024-03-23T12:42:02;98655.38;;;21.30;28.12
10948;BME280;5526;42.070;24.752;2024-03-23T12:44:29;98657.78;;;21.67;27.89
10948;BME280;5526;42.070;24.752;2024-03-23T12:46:55;98654.56;;;21.74;27.87
10948;BME280;5526;42.070;24.752;2024-03-23T12:49:23;98641.72;;;21.67;27.96
10948;BME280;5526;42.070;24.752;2024-03-23T12:51:54;98648.63;;;21.56;27.33
10948;BME280;5526;42.070;24.752;2024-03-23T12:54:23;98636.16;;;21.28;27.64
10948;BME280;5526;42.070;24.752;2024-03-23T12:56:49;98618.66;;;21.30;27.21
10948;BME280;5526;42.070;24.752;2024-03-23T12:59:16;98636.31;;;21.31;27.57
10948;BME280;5526;42.070;24.752;2024-03-23T13:01:44;98630.19;;;21.55;27.23
10948;BME280;5526;42.070;24.752;2024-03-23T13:04:11;98624.13;;;21.78;27.34
10948;BME280;5526;42.070;24.752;2024-03-23T13:06:37;98624.31;;;21.85;27.27
10948;BME280;5526;42.070;24.752;2024-03-23T13:09:04;98614.94;;;22.03;27.16
10948;BME280;5526;42.070;24.752;2024-03-23T13:11:32;98616.81;;;22.15;27.65
10948;BME280;5526;42.070;24.752;2024-03-23T13:13:59;98605.44;;;22.06;27.51
10948;BME280;5526;42.070;24.752;2024-03-23T13:16:25;98615.59;;;22.12;27.51
10948;BME280;5526;42.070;24.752;2024-03-23T13:18:52;98604.13;;;22.00;26.41
10948;BME280;5526;42.070;24.752;2024-03-23T13:21:18;98600.06;;;21.46;26.35
10948;BME280;5526;42.070;24.752;2024-03-23T13:23:47;98601.41;;;21.64;26.50
10948;BME280;5526;42.070;24.752;2024-03-23T13:26:13;98597.22;;;21.18;27.66
10948;BME280;5526;42.070;24.752;2024-03-23T13:28:42;98600.41;;;21.44;27.91
10948;BME280;5526;42.070;24.752;2024-03-23T13:31:10;98597.09;;;21.71;27.96
10948;BME280;5526;42.070;24.752;2024-03-23T13:33:36;98590.34;;;21.53;27.61
10948;BME280;5526;42.070;24.752;2024-03-23T13:36:04;98582.56;;;21.84;27.25
10948;BME280;5526;42.070;24.752;2024-03-23T13:38:30;98575.88;;;22.02;27.07
10948;BME280;5526;42.070;24.752;2024-03-23T13:40:58;98578.75;;;21.97;25.85
10948;BME280;5526;42.070;24.752;2024-03-23T13:43:25;98574.03;;;22.18;26.10
10948;BME280;5526;42.070;24.752;2024-03-23T13:45:56;98580.66;;;22.09;26.00
10948;BME280;5526;42.070;24.752;2024-03-23T13:48:24;98573.94;;;22.03;26.18
10948;BME280;5526;42.070;24.752;2024-03-23T13:50:57;98573.50;;;22.01;26.45
10948;BME280;5526;42.070;24.752;2024-03-23T13:53:23;98565.34;;;21.97;25.55
10948;BME280;5526;42.070;24.752;2024-03-23T13:55:50;98567.53;;;21.80;25.36
10948;BME280;5526;42.070;24.752;2024-03-23T13:58:16;98560.91;;;21.77;25.20